Time;durP1;ratioP1;P1;durP2;ratioP2;P2;SDS_P1;SDS_P2;PMS_P1;PMS_P2;Temp;Humidity;BMP_temperature;BMP_pressure;BME280_temperature;BME280_humidity;BME280_pressure;Samples;Min_cycle;Max_cycle;Signal;HPM_P1;HPM_P2
2022/01/29 00:00:16;;;;;;;9.73;3.35;;;21.40;46.80;;;;;;5041563;28;20086;-74
2022/01/29 00:02:42;;;;;;;8.63;3.15;;;21.40;46.80;;;;;;4998845;28;20053;-74
2022/01/29 00:05:09;;;;;;;7.40;3.40;;;21.40;47.50;;;;;;5043404;28;20488;-76
2022/01/29 00:07:41;;;;;;;7.20;3.30;;;21.40;46.80;;;;;;5023660;28;20594;-75
2022/01/29 00:10:07;;;;;;;9.68;2.75;;;21.40;46.70;;;;;;5036849;28;20091;-76
2022/01/29 00:12:33;;;;;;;7.85;3.60;;;21.40;46.80;;;;;;5025890;28;20045;-75
2022/01/29 00:14:59;;;;;;;9.10;3.53;;;21.50;46.70;;;;;;5026171;28;20072;-73
2022/01/29 00:17:25;;;;;;;6.68;3.25;;;21.40;46.70;;;;;;5043139;28;20394;-73
2022/01/29 00:19:50;;;;;;;8.05;2.92;;;21.50;47.50;;;;;;5019480;28;20539;-76
2022/01/29 00:22:16;;;;;;;6.10;2.90;;;21.40;46.70;;;;;;5010521;28;20045;-73
2022/01/29 00:24:43;;;;;;;5.53;2.80;;;21.40;46.70;;;;;;5044422;28;20047;-75
2022/01/29 00:27:10;;;;;;;10.85;3.17;;;21.40;46.70;;;;;;5022129;28;20052;-75
2022/01/29 00:29:39;;;;;;;7.20;2.95;;;21.50;46.60;;;;;;5042423;28;20580;-74
2022/01/29 00:32:06;;;;;;;6.68;2.78;;;21.40;46.60;;;;;;5025548;28;20534;-73
2022/01/29 00:34:32;;;;;;;5.82;2.72;;;21.50;46.60;;;;;;5028846;28;20049;-73
2022/01/29 00:36:57;;;;;;;6.53;3.10;;;21.50;46.60;;;;;;5016452;28;20504;-73
2022/01/29 00:39:23;;;;;;;8.07;2.30;;;21.50;46.60;;;;;;5019489;28;20057;-75
2022/01/29 00:41:49;;;;;;;5.63;2.50;;;21.50;46.60;;;;;;5027754;28;20045;-74
2022/01/29 00:44:14;;;;;;;5.55;2.53;;;21.50;46.50;;;;;;5027412;28;20038;-74
2022/01/29 00:46:41;;;;;;;6.85;2.80;;;21.50;46.60;;;;;;5028371;28;20038;-75
2022/01/29 00:49:08;;;;;;;4.93;2.70;;;21.50;46.60;;;;;;5010316;28;20046;-74
2022/01/29 00:51:34;;;;;;;5.88;2.75;;;21.50;46.60;;;;;;5026400;28;20060;-75
2022/01/29 00:53:59;;;;;;;4.95;2.63;;;21.50;46.50;;;;;;5001229;28;20045;-75
2022/01/29 00:56:25;;;;;;;7.03;2.60;;;21.50;46.50;;;;;;5026891;28;20045;-76
2022/01/29 00:58:50;;;;;;;5.65;2.47;;;21.50;46.50;;;;;;5026901;28;20037;-74
2022/01/29 01:01:16;;;;;;;9.23;2.78;;;21.50;46.50;;;;;;5026999;28;20127;-73
2022/01/29 01:03:41;;;;;;;8.50;2.67;;;21.40;46.40;;;;;;5027049;28;20068;-74
2022/01/29 01:06:07;;;;;;;7.20;2.20;;;21.50;46.50;;;;;;5023362;28;20052;-76
2022/01/29 01:08:32;;;;;;;4.65;2.50;;;21.50;46.50;;;;;;5017515;28;20127;-75
2022/01/29 01:10:58;;;;;;;5.88;2.42;;;21.50;46.50;;;;;;5017191;28;20041;-75
2022/01/29 01:13:24;;;;;;;6.05;2.58;;;21.50;46.50;;;;;;5025791;28;20052;-75
2022/01/29 01:15:49;;;;;;;6.40;2.72;;;21.40;46.40;;;;;;5028877;28;20044;-75
2022/01/29 01:18:15;;;;;;;5.72;2.60;;;21.50;46.50;;;;;;5026371;28;20532;-75
2022/01/29 01:20:41;;;;;;;4.72;2.55;;;21.50;46.50;;;;;;5023714;28;20042;-75
2022/01/29 01:23:06;;;;;;;6.50;2.47;;;21.50;46.40;;;;;;5027059;28;20175;-75
2022/01/29 01:25:32;;;;;;;4.95;2.38;;;21.50;46.40;;;;;;5024342;28;20037;-74
2022/01/29 01:27:58;;;;;;;5.00;2.33;;;21.50;46.40;;;;;;5028845;28;20033;-75
2022/01/29 01:30:24;;;;;;;5.80;2.10;;;21.50;46.40;;;;;;5019390;28;20508;-75
2022/01/29 01:32:50;;;;;;;5.30;2.30;;;21.50;46.40;;;;;;5026264;28;20049;-70
2022/01/29 01:35:24;;;;;;;5.78;2.30;;;21.50;46.40;;;;;;5022545;28;20042;-71
2022/01/29 01:37:57;;;;;;;4.72;2.10;;;21.50;46.30;;;;;;5018293;28;20095;-68
2022/01/29 01:40:25;;;;;;;3.78;2.45;;;21.50;46.30;;;;;;5023766;28;20053;-68
2022/01/29 01:42:57;;;;;;;4.82;2.28;;;21.50;46.30;;;;;;5012602;28;20113;-68
2022/01/29 01:45:23;;;;;;;3.95;2.35;;;21.50;46.20;;;;;;5015273;28;20065;-68
2022/01/29 01:47:49;;;;;;;7.40;2.20;;;21.50;46.20;;;;;;5023127;28;20068;-70
2022/01/29 01:50:14;;;;;;;3.53;1.92;;;21.50;46.20;;;;;;5024123;28;20046;-70
2022/01/29 01:52:41;;;;;;;3.72;1.95;;;21.50;46.20;;;;;;5024103;28;20088;-69
2022/01/29 01:55:07;;;;;;;4.43;2.15;;;21.50;46.20;;;;;;5023435;28;20053;-69
2022/01/29 01:57:33;;;;;;;4.82;2.20;;;21.50;46.10;;;;;;5026447;28;20048;-68
2022/01/29 02:00:02;;;;;;;5.32;2.00;;;21.50;46.10;;;;;;5020191;28;20045;-69
2022/01/29 02:02:27;;;;;;;3.92;2.00;;;21.50;46.10;;;;;;5008470;28;20329;-69
2022/01/29 02:04:53;;;;;;;3.72;1.83;;;21.50;46.10;;;;;;5026089;28;20040;-69
2022/01/29 02:07:19;;;;;;;3.63;2.03;;;21.50;46.10;;;;;;5025272;28;20076;-68
2022/01/29 02:09:45;;;;;;;4.57;2.10;;;21.50;46.20;;;;;;5025638;28;20033;-69
2022/01/29 02:12:12;;;;;;;3.13;1.90;;;21.60;46.10;;;;;;5022971;28;20042;-69
2022/01/29 02:14:39;;;;;;;3.78;1.88;;;21.50;46.10;;;;;;5020165;28;20038;-70
2022/01/29 02:17:05;;;;;;;3.65;1.75;;;21.60;46.10;;;;;;5023664;28;20126;-70
2022/01/29 02:19:32;;;;;;;4.38;2.08;;;21.60;46.20;;;;;;5021972;28;20053;-69
2022/01/29 02:21:58;;;;;;;3.85;1.88;;;21.60;46.10;;;;;;5025102;28;20493;-71
2022/01/29 02:24:25;;;;;;;3.40;2.00;;;21.60;46.10;;;;;;5009864;28;20579;-68
2022/01/29 02:26:52;;;;;;;3.80;1.83;;;21.60;46.10;;;;;;5024829;28;20079;-74
2022/01/29 02:29:19;;;;;;;4.53;1.95;;;21.60;46.10;;;;;;5027327;28;20040;-73
2022/01/29 02:31:53;;;;;;;4.90;1.60;;;21.60;46.10;;;;;;5023052;28;20133;-73
2022/01/29 02:34:19;;;;;;;4.22;2.05;;;21.60;46.20;;;;;;5025786;28;20056;-73
2022/01/29 02:36:46;;;;;;;3.72;2.00;;;21.60;46.20;;;;;;5035244;28;20084;-74
2022/01/29 02:39:12;;;;;;;4.07;1.75;;;21.60;46.20;;;;;;5028973;28;20075;-73
2022/01/29 02:41:42;;;;;;;3.72;1.85;;;21.60;46.30;;;;;;5046712;28;20040;-74
2022/01/29 02:44:08;;;;;;;5.05;2.05;;;21.60;46.20;;;;;;5043748;28;20068;-73
2022/01/29 02:49:17;;;;;;;5.40;1.95;;;21.50;46.10;;;;;;5025836;28;20678;-73
2022/01/29 02:51:53;;;;;;;5.07;2.00;;;21.50;46.10;;;;;;5046972;28;20045;-73
2022/01/29 02:54:20;;;;;;;3.70;1.90;;;21.60;46.20;;;;;;5044384;28;20048;-73
2022/01/29 02:56:46;;;;;;;5.95;2.00;;;21.60;46.90;;;;;;5044820;28;20044;-73
2022/01/29 02:59:12;;;;;;;4.45;1.80;;;21.60;46.20;;;;;;5044940;28;20409;-73
2022/01/29 03:01:37;;;;;;;4.95;1.77;;;21.60;46.20;;;;;;5026585;28;20049;-73
2022/01/29 03:04:03;;;;;;;4.60;2.08;;;21.60;46.20;;;;;;5046342;28;20037;-73
2022/01/29 03:06:30;;;;;;;4.88;1.98;;;21.60;46.10;;;;;;5026900;28;20124;-73
2022/01/29 03:08:56;;;;;;;6.47;2.10;;;21.60;46.10;;;;;;5046766;28;20055;-73
2022/01/29 03:11:22;;;;;;;4.10;1.95;;;21.60;46.20;;;;;;5044457;28;20703;-72
2022/01/29 03:13:48;;;;;;;3.63;1.90;;;21.60;46.10;;;;;;5044506;28;20397;-73
2022/01/29 03:16:14;;;;;;;5.65;1.85;;;21.60;46.10;;;;;;5046057;28;20566;-74
2022/01/29 03:18:40;;;;;;;3.22;1.80;;;21.50;46.20;;;;;;5045090;28;20037;-74
2022/01/29 03:21:06;;;;;;;4.70;2.00;;;21.50;46.10;;;;;;5027248;28;20040;-73
2022/01/29 03:23:31;;;;;;;4.85;2.00;;;21.60;46.20;;;;;;5026926;28;20730;-70
2022/01/29 03:25:57;;;;;;;4.28;1.88;;;21.60;46.10;;;;;;5026867;28;20048;-72
2022/01/29 03:28:22;;;;;;;5.05;1.90;;;21.60;46.10;;;;;;5025545;28;20795;-72
2022/01/29 03:30:48;;;;;;;4.10;1.98;;;21.50;46.10;;;;;;5045561;28;20128;-72
2022/01/29 03:33:13;;;;;;;4.32;2.10;;;21.60;46.10;;;;;;5028484;28;20045;-73
2022/01/29 03:35:39;;;;;;;5.10;1.90;;;21.50;46.10;;;;;;5044610;28;20106;-72
2022/01/29 03:38:05;;;;;;;4.93;1.77;;;21.60;46.10;;;;;;5045912;28;20041;-73
2022/01/29 03:40:32;;;;;;;4.47;1.80;;;21.60;46.10;;;;;;5044367;28;20048;-73
2022/01/29 03:43:02;;;;;;;3.58;1.83;;;21.60;46.10;;;;;;5043889;28;20527;-71
2022/01/29 03:45:28;;;;;;;5.07;1.80;;;21.60;46.10;;;;;;5027290;28;20048;-74
2022/01/29 03:47:53;;;;;;;3.58;1.70;;;21.60;46.10;;;;;;5046114;28;20041;-73
2022/01/29 03:50:19;;;;;;;4.88;1.80;;;21.60;46.10;;;;;;5018757;28;20045;-74
2022/01/29 03:52:45;;;;;;;3.20;1.70;;;21.50;46.00;;;;;;5046255;28;20041;-72
2022/01/29 03:55:10;;;;;;;4.13;1.98;;;21.60;46.10;;;;;;5043461;28;20041;-73
2022/01/29 03:57:36;;;;;;;5.50;1.80;;;21.60;46.00;;;;;;5027513;28;20045;-73
2022/01/29 04:00:03;;;;;;;7.00;2.17;;;21.60;46.00;;;;;;5046198;28;20047;-70
2022/01/29 04:02:28;;;;;;;4.18;1.85;;;21.60;46.10;;;;;;5026569;28;20037;-70
2022/01/29 04:04:54;;;;;;;5.70;2.10;;;21.60;46.10;;;;;;5045413;28;20037;-70
2022/01/29 04:07:19;;;;;;;4.90;1.92;;;21.60;46.10;;;;;;5031773;28;20115;-71
2022/01/29 04:09:48;;;;;;;6.28;1.88;;;21.60;46.10;;;;;;5045571;28;20053;-71
2022/01/29 04:12:15;;;;;;;5.03;2.05;;;21.60;46.10;;;;;;5038857;28;20045;-70
2022/01/29 04:14:41;;;;;;;5.13;1.88;;;21.60;46.10;;;;;;5028131;28;20164;-72
2022/01/29 04:17:07;;;;;;;4.65;1.77;;;21.60;46.10;;;;;;5031453;28;20759;-70
2022/01/29 04:19:34;;;;;;;3.38;1.85;;;21.60;46.10;;;;;;5047553;28;20048;-69
2022/01/29 04:22:00;;;;;;;6.60;2.33;;;21.60;46.10;;;;;;5050001;28;20047;-72
2022/01/29 04:24:26;;;;;;;6.60;1.90;;;21.50;46.10;;;;;;5047776;28;20492;-69
2022/01/29 04:26:52;;;;;;;3.15;1.77;;;21.60;46.10;;;;;;5031458;28;20062;-70
2022/01/29 04:29:18;;;;;;;3.92;1.75;;;21.60;46.10;;;;;;5047950;28;20512;-70
2022/01/29 04:34:09;;;;;;;4.80;2.00;;;21.60;46.10;;;;;;5031044;28;20092;-73
2022/01/29 04:36:35;;;;;;;5.18;2.00;;;21.60;46.10;;;;;;5030136;28;20178;-73
2022/01/29 04:39:00;;;;;;;4.28;1.85;;;21.60;46.10;;;;;;5048296;28;20040;-73
2022/01/29 04:41:26;;;;;;;5.72;1.85;;;21.60;46.10;;;;;;5029345;28;20049;-70
2022/01/29 04:43:51;;;;;;;4.18;2.05;;;21.60;46.10;;;;;;5030718;28;20103;-73
2022/01/29 04:46:17;;;;;;;3.70;1.80;;;21.60;46.10;;;;;;5030204;28;20045;-71
2022/01/29 04:48:43;;;;;;;3.85;1.85;;;21.50;46.10;;;;;;5031193;28;20600;-74
2022/01/29 04:51:08;;;;;;;2.45;1.60;;;21.60;46.10;;;;;;5048345;28;20045;-68
2022/01/29 04:53:34;;;;;;;3.28;1.60;;;21.60;46.10;;;;;;5045245;28;20492;-73
2022/01/29 04:55:59;;;;;;;4.68;2.00;;;21.60;46.10;;;;;;5039646;28;20040;-72
2022/01/29 04:58:25;;;;;;;4.70;1.73;;;21.60;46.10;;;;;;5047566;28;20121;-73
2022/01/29 05:00:50;;;;;;;4.20;1.58;;;21.60;46.10;;;;;;5030679;28;20442;-72
2022/01/29 05:03:16;;;;;;;4.47;1.88;;;21.60;46.10;;;;;;5048125;28;20890;-74
2022/01/29 05:05:43;;;;;;;3.28;1.85;;;21.60;46.10;;;;;;5047533;28;20029;-71
2022/01/29 05:08:11;;;;;;;4.15;1.77;;;21.60;46.10;;;;;;5039486;28;20045;-72
2022/01/29 05:10:37;;;;;;;3.10;1.70;;;21.60;46.10;;;;;;5047640;28;20040;-73
2022/01/29 05:13:07;;;;;;;4.85;1.77;;;21.60;46.10;;;;;;5048172;28;20113;-73
2022/01/29 05:15:47;;;;;;;4.70;1.83;;;21.60;46.10;;;;;;5047443;28;20040;-73
2022/01/29 05:29:14;;;;;;;3.28;1.90;;;21.60;46.10;;;;;;5028127;28;21182;-72
2022/01/29 05:31:40;;;;;;;3.97;1.73;;;21.60;46.10;;;;;;5031153;28;20057;-72
2022/01/29 05:34:05;;;;;;;4.38;1.92;;;21.50;46.20;;;;;;5047630;28;20040;-73
2022/01/29 05:36:31;;;;;;;5.07;1.60;;;21.60;46.20;;;;;;5046847;28;20191;-73
2022/01/29 05:38:57;;;;;;;4.20;1.90;;;21.60;46.10;;;;;;5048061;28;20132;-73
2022/01/29 05:41:23;;;;;;;3.53;1.50;;;21.60;46.10;;;;;;5046864;28;20059;-74
2022/01/29 05:43:51;;;;;;;3.65;1.75;;;21.60;46.10;;;;;;5046144;28;20037;-73
2022/01/29 05:46:17;;;;;;;4.45;2.03;;;21.60;46.20;;;;;;5046854;28;20041;-71
2022/01/29 05:48:43;;;;;;;3.45;1.52;;;21.60;46.20;;;;;;5029081;28;20045;-72
2022/01/29 05:51:09;;;;;;;4.05;1.70;;;21.60;46.10;;;;;;5047318;28;20052;-73
2022/01/29 05:53:35;;;;;;;3.22;1.50;;;21.60;46.20;;;;;;5045774;28;20044;-73
2022/01/29 05:56:01;;;;;;;4.88;1.70;;;21.60;46.20;;;;;;5029029;28;20138;-72
2022/01/29 05:58:27;;;;;;;5.55;1.98;;;21.60;46.10;;;;;;5017005;28;20041;-73
2022/01/29 06:00:53;;;;;;;3.40;1.58;;;21.60;46.20;;;;;;5020963;28;20049;-73
2022/01/29 06:03:19;;;;;;;3.60;1.50;;;21.60;46.20;;;;;;5048289;28;20037;-73
2022/01/29 06:05:45;;;;;;;3.78;1.42;;;21.60;46.10;;;;;;5047150;28;20033;-73
2022/01/29 06:08:10;;;;;;;3.35;1.30;;;21.60;46.10;;;;;;5028324;28;20141;-74
2022/01/29 06:10:36;;;;;;;4.82;1.70;;;21.60;46.10;;;;;;5028152;28;20399;-73
2022/01/29 06:13:10;;;;;;;4.55;1.77;;;21.50;46.10;;;;;;5046595;28;20048;-73
2022/01/29 06:15:39;;;;;;;4.28;1.75;;;21.50;46.20;;;;;;5027845;28;20055;-74
2022/01/29 06:18:06;;;;;;;2.40;1.70;;;21.60;46.20;;;;;;5047543;28;20520;-74
2022/01/29 06:20:32;;;;;;;2.67;1.63;;;21.50;46.20;;;;;;5045786;28;20082;-73
2022/01/29 06:22:58;;;;;;;4.00;1.52;;;21.50;46.10;;;;;;5048318;28;20167;-73
2022/01/29 06:25:24;;;;;;;3.72;1.70;;;21.50;46.20;;;;;;5027704;28;20128;-73
2022/01/29 06:27:49;;;;;;;3.13;1.52;;;21.50;46.20;;;;;;5028013;28;20048;-73
2022/01/29 06:30:16;;;;;;;3.33;1.70;;;21.50;46.20;;;;;;5046473;28;20053;-73
2022/01/29 06:32:42;;;;;;;3.58;1.67;;;21.50;46.20;;;;;;5046252;28;20048;-73
2022/01/29 06:35:09;;;;;;;3.17;1.52;;;21.50;46.20;;;;;;5028753;28;20049;-73
2022/01/29 06:37:35;;;;;;;3.45;1.67;;;21.50;46.20;;;;;;5046796;28;20053;-73
2022/01/29 06:40:00;;;;;;;3.10;1.65;;;21.50;46.20;;;;;;5028565;28;20067;-73
2022/01/29 06:42:26;;;;;;;3.33;1.77;;;21.50;46.20;;;;;;5044820;28;20496;-73
2022/01/29 06:44:52;;;;;;;4.25;1.60;;;21.50;46.90;;;;;;5045060;28;20139;-72
2022/01/29 06:47:17;;;;;;;4.47;1.95;;;21.50;46.20;;;;;;5046761;28;20122;-73
2022/01/29 06:49:43;;;;;;;2.75;1.30;;;21.60;46.20;;;;;;5045976;28;20037;-72
2022/01/29 06:52:08;;;;;;;3.53;1.67;;;21.60;46.20;;;;;;5028610;28;20509;-73
2022/01/29 06:54:34;;;;;;;3.28;1.83;;;21.50;46.20;;;;;;5045451;28;20045;-73
2022/01/29 06:56:59;;;;;;;3.38;1.45;;;21.50;46.20;;;;;;5045748;28;20041;-73
2022/01/29 06:59:25;;;;;;;3.60;1.77;;;21.50;46.20;;;;;;5027901;28;20427;-73
2022/01/29 07:01:50;;;;;;;4.22;1.65;;;21.50;46.20;;;;;;5043107;28;20047;-73
2022/01/29 07:04:16;;;;;;;3.50;1.63;;;21.50;46.20;;;;;;5026121;28;20048;-74
2022/01/29 07:06:42;;;;;;;4.47;1.60;;;21.50;46.20;;;;;;5046241;28;20043;-73
2022/01/29 07:09:08;;;;;;;3.47;1.63;;;21.50;46.20;;;;;;5045454;28;20411;-73
2022/01/29 07:11:33;;;;;;;2.80;1.40;;;21.50;46.20;;;;;;5044684;28;20049;-73
2022/01/29 07:14:03;;;;;;;7.10;1.92;;;21.50;46.30;;;;;;5044021;28;20049;-71
2022/01/29 07:16:34;;;;;;;4.88;1.55;;;21.60;46.30;;;;;;5025708;28;20057;-72
2022/01/29 07:19:00;;;;;;;3.80;1.70;;;21.50;46.40;;;;;;5024716;28;20075;-70
2022/01/29 07:21:25;;;;;;;5.50;1.50;;;21.60;46.40;;;;;;5026746;28;20025;-72
2022/01/29 07:23:51;;;;;;;4.32;1.50;;;21.50;46.30;;;;;;5026017;28;20048;-72
2022/01/29 07:26:16;;;;;;;4.22;1.52;;;21.60;46.40;;;;;;5024489;28;20501;-71
2022/01/29 07:28:42;;;;;;;4.82;1.60;;;21.60;46.40;;;;;;5027200;28;20523;-72
2022/01/29 07:31:08;;;;;;;6.00;1.65;;;21.60;46.40;;;;;;5043233;28;20037;-71
2022/01/29 07:33:34;;;;;;;4.60;1.80;;;21.60;46.40;;;;;;5043510;28;20219;-76
2022/01/29 07:35:59;;;;;;;3.80;1.67;;;21.60;46.50;;;;;;5039660;28;20043;-74
2022/01/29 07:38:25;;;;;;;3.40;1.45;;;21.60;46.60;;;;;;5043526;28;20047;-72
2022/01/29 07:40:51;;;;;;;4.97;1.80;;;21.60;46.70;;;;;;5045711;28;20151;-74
2022/01/29 07:43:16;;;;;;;4.88;1.55;;;21.60;46.70;;;;;;5023347;28;20045;-72
2022/01/29 07:45:42;;;;;;;4.28;1.80;;;21.70;46.80;;;;;;5032915;28;20153;-71
2022/01/29 07:48:08;;;;;;;3.67;1.60;;;21.70;46.80;;;;;;5025262;28;20044;-74
2022/01/29 07:50:33;;;;;;;7.03;1.63;;;21.60;46.80;;;;;;5037351;28;20064;-74
2022/01/29 07:53:02;;;;;;;2.88;1.33;;;21.60;46.80;;;;;;5044673;28;20041;-71
2022/01/29 07:55:31;;;;;;;6.55;1.33;;;21.70;46.80;;;;;;5041248;28;20204;-70
2022/01/29 07:58:02;;;;;;;2.92;1.40;;;21.70;46.80;;;;;;5040431;28;20052;-74
2022/01/29 08:00:28;;;;;;;3.65;1.65;;;21.60;46.80;;;;;;5025595;28;20053;-72
2022/01/29 08:02:54;;;;;;;2.70;1.50;;;21.70;46.90;;;;;;5042236;28;20053;-73
2022/01/29 08:05:19;;;;;;;4.13;1.60;;;21.70;46.90;;;;;;5016523;28;20052;-73
2022/01/29 08:07:45;;;;;;;3.92;1.70;;;21.70;47.70;;;;;;5026231;28;20103;-72
2022/01/29 08:10:10;;;;;;;2.97;1.30;;;21.70;47.00;;;;;;5043096;28;20048;-70
2022/01/29 08:12:36;;;;;;;5.45;1.80;;;21.70;47.00;;;;;;5025085;28;20053;-73
2022/01/29 08:15:04;;;;;;;3.92;1.60;;;21.70;47.00;;;;;;5019367;28;20052;-72
2022/01/29 08:17:29;;;;;;;3.27;1.60;;;21.70;47.00;;;;;;5001980;28;20570;-76
2022/01/29 08:19:55;;;;;;;4.70;1.60;;;21.70;47.00;;;;;;5042329;28;20041;-74
2022/01/29 08:22:21;;;;;;;4.65;1.40;;;21.70;47.10;;;;;;5025279;28;20682;-75
2022/01/29 08:24:46;;;;;;;4.20;1.60;;;21.70;47.10;;;;;;5042514;28;20053;-73
2022/01/29 08:27:12;;;;;;;4.43;1.55;;;21.70;47.10;;;;;;5016319;28;20482;-75
2022/01/29 08:29:38;;;;;;;5.60;1.80;;;21.70;47.20;;;;;;5017957;28;20032;-74
2022/01/29 08:32:04;;;;;;;5.30;1.70;;;21.70;47.30;;;;;;5020616;28;20455;-73
2022/01/29 08:34:30;;;;;;;3.97;1.38;;;21.70;47.40;;;;;;5021437;28;20041;-75
2022/01/29 08:37:00;;;;;;;4.65;1.63;;;21.70;47.50;;;;;;5041513;28;20668;-77
2022/01/29 08:39:26;;;;;;;4.03;1.40;;;21.70;47.50;;;;;;5040992;28;20051;-75
2022/01/29 08:41:52;;;;;;;6.53;1.58;;;21.70;47.60;;;;;;4996065;28;20120;-73
2022/01/29 08:46:53;;;;;;;2.45;1.42;;;21.70;47.60;;;;;;5176788;22;20270;-73
2022/01/29 08:49:19;;;;;;;3.55;1.48;;;21.70;47.60;;;;;;5003278;28;20038;-71
2022/01/29 08:51:45;;;;;;;4.60;1.48;;;21.80;47.70;;;;;;5003863;28;20045;-71
2022/01/29 08:54:11;;;;;;;4.07;1.52;;;21.80;47.70;;;;;;5004225;28;20508;-72
2022/01/29 08:56:36;;;;;;;3.38;1.45;;;21.80;47.80;;;;;;5003180;28;20057;-71
2022/01/29 08:59:02;;;;;;;4.75;1.50;;;21.80;47.80;;;;;;5009938;28;20038;-71
2022/01/29 09:01:28;;;;;;;3.40;1.35;;;21.80;47.80;;;;;;5004463;28;20050;-73
2022/01/29 09:03:54;;;;;;;2.38;1.40;;;21.80;48.50;;;;;;5007771;28;20041;-72
2022/01/29 09:06:20;;;;;;;4.18;1.50;;;21.70;47.60;;;;;;5003916;28;20250;-72
2022/01/29 09:08:49;;;;;;;3.95;1.33;;;21.70;47.60;;;;;;5007175;28;20037;-72
2022/01/29 09:11:14;;;;;;;;;;;21.70;47.60;;;;;;5011512;28;20081;-71
2022/01/29 09:13:40;;;;;;;3.92;1.55;;;21.70;47.50;;;;;;5007594;28;20011;-73
2022/01/29 09:16:06;;;;;;;4.15;1.45;;;21.70;47.50;;;;;;5004934;28;20065;-69
2022/01/29 09:18:32;;;;;;;5.90;1.73;;;21.70;47.40;;;;;;5005910;28;20045;-69
2022/01/29 09:20:57;;;;;;;7.28;1.73;;;21.70;47.40;;;;;;5008204;28;20038;-72
2022/01/29 09:23:23;;;;;;;7.13;1.75;;;21.70;47.40;;;;;;5006451;28;20441;-72
2022/01/29 09:25:48;;;;;;;6.32;1.80;;;21.70;47.50;;;;;;5007973;28;20038;-70
2022/01/29 09:28:14;;;;;;;9.00;1.88;;;21.60;47.50;;;;;;5008121;28;20077;-72
2022/01/29 09:30:41;;;;;;;5.18;1.70;;;21.60;47.50;;;;;;5008228;28;20045;-71
2022/01/29 09:33:06;;;;;;;4.97;1.60;;;21.60;47.60;;;;;;5030071;28;20492;-73
2022/01/29 09:35:32;;;;;;;3.78;1.50;;;21.60;47.50;;;;;;5017043;28;20094;-70
2022/01/29 09:37:58;;;;;;;5.00;1.73;;;21.60;47.50;;;;;;5014118;28;20030;-72
2022/01/29 09:40:24;;;;;;;3.33;1.60;;;21.60;47.50;;;;;;5017731;28;20172;-72
2022/01/29 09:42:51;;;;;;;4.25;1.75;;;21.60;47.50;;;;;;5013136;28;20046;-73
2022/01/29 09:45:19;;;;;;;4.57;1.67;;;21.60;47.50;;;;;;5013573;28;20053;-73
2022/01/29 09:47:47;;;;;;;7.93;1.70;;;21.60;47.50;;;;;;5009678;28;20046;-73
2022/01/29 09:50:18;;;;;;;3.72;1.90;;;21.60;47.50;;;;;;5007054;28;20049;-71
2022/01/29 09:52:44;;;;;;;;;;;21.60;47.50;;;;;;5004459;28;20026;-71
2022/01/29 09:55:09;;;;;;;6.30;2.13;;;21.60;47.40;;;;;;5013713;28;19932;-70
2022/01/29 09:57:36;;;;;;;5.05;1.98;;;21.60;47.60;;;;;;5015067;28;20152;-71
2022/01/29 10:00:04;;;;;;;6.43;1.90;;;21.60;47.50;;;;;;5017271;28;20044;-71
2022/01/29 10:02:29;;;;;;;7.05;1.50;;;21.50;47.50;;;;;;5013852;28;20069;-72
2022/01/29 10:04:57;;;;;;;7.40;1.80;;;21.60;47.60;;;;;;5014243;28;20045;-71
2022/01/29 10:07:28;;;;;;;10.98;1.83;;;21.60;47.70;;;;;;5019524;28;20038;-72
2022/01/29 10:09:57;;;;;;;12.23;1.85;;;21.60;47.70;;;;;;5011502;28;20692;-74
2022/01/29 10:12:31;;;;;;;4.25;1.45;;;21.60;47.80;;;;;;5012518;28;20069;-73
2022/01/29 10:15:02;;;;;;;4.80;1.50;;;21.60;48.00;;;;;;5012743;28;20049;-70
2022/01/29 10:17:43;;;;;;;4.95;1.52;;;21.60;48.00;;;;;;5019732;28;20060;-70
2022/01/29 10:20:10;;;;;;;3.70;1.63;;;21.60;48.10;;;;;;5009896;28;20591;-70
2022/01/29 10:22:36;;;;;;;6.50;1.73;;;21.60;48.20;;;;;;5012942;28;20038;-71
2022/01/29 10:25:23;;;;;;;4.78;1.80;;;21.60;48.10;;;;;;5012291;28;20044;-71
2022/01/29 10:28:12;;;;;;;10.00;2.25;;;21.60;48.10;;;;;;5022430;28;20060;-71
2022/01/29 10:32:46;;;;;;;5.28;1.90;;;21.70;47.20;;;;;;5101647;27;20367;-69
2022/01/29 10:35:11;;;;;;;9.48;2.38;;;21.70;47.50;;;;;;5109799;28;20051;-69
2022/01/29 10:37:37;;;;;;;9.25;2.30;;;21.70;47.40;;;;;;5098808;28;20045;-70
2022/01/29 10:40:24;;;;;;;5.25;2.25;;;21.80;47.20;;;;;;5107021;28;20036;-69
2022/01/29 10:42:49;;;;;;;7.47;2.28;;;21.80;47.10;;;;;;5134040;27;20052;-71
2022/01/29 10:45:30;;;;;;;13.68;2.33;;;21.90;47.10;;;;;;5111973;28;20044;-70
2022/01/29 10:47:58;;;;;;;11.13;3.03;;;21.80;46.90;;;;;;5112579;27;20100;-71
2022/01/29 10:50:24;;;;;;;12.25;2.63;;;21.90;47.00;;;;;;5111461;27;20035;-68
2022/01/29 10:52:50;;;;;;;11.07;2.72;;;21.80;47.00;;;;;;5107364;27;20048;-70
2022/01/29 10:55:16;;;;;;;12.57;2.63;;;21.90;47.10;;;;;;5109318;28;20088;-68
2022/01/29 10:57:46;;;;;;;14.45;2.60;;;21.90;47.30;;;;;;5104938;28;20031;-70
2022/01/29 11:00:21;;;;;;;13.68;3.10;;;21.80;47.50;;;;;;5138861;27;20433;-72
2022/01/29 11:02:48;;;;;;;12.15;2.90;;;21.80;47.90;;;;;;5111256;28;20040;-72
2022/01/29 11:05:15;;;;;;;15.77;3.00;;;21.80;48.00;;;;;;5138696;27;20494;-71
2022/01/29 11:07:45;;;;;;;19.23;2.85;;;21.80;48.30;;;;;;5107441;28;20043;-71
2022/01/29 11:10:11;;;;;;;13.35;3.90;;;21.90;48.60;;;;;;5110357;28;20740;-69
2022/01/29 11:12:42;;;;;;;13.73;3.20;;;21.90;49.00;;;;;;5089981;28;20059;-69
2022/01/29 11:15:09;;;;;;;15.45;3.83;;;21.90;49.60;;;;;;5128303;27;20109;-70
2022/01/29 11:17:34;;;;;;;16.75;3.92;;;21.90;49.90;;;;;;5108816;28;20052;-72
2022/01/29 11:20:00;;;;;;;16.58;3.30;;;22.00;50.00;;;;;;5110143;28;20171;-71
2022/01/29 11:22:29;;;;;;;13.18;3.58;;;21.90;49.90;;;;;;5106395;28;20036;-71
2022/01/29 11:24:57;;;;;;;;;;;21.90;50.00;;;;;;5107464;28;20086;-69
2022/01/29 11:27:29;;;;;;;18.73;3.25;;;21.90;50.20;;;;;;5132832;27;19936;-70
2022/01/29 11:30:09;;;;;;;13.68;2.70;;;21.90;50.20;;;;;;5104818;28;20108;-69
2022/01/29 11:32:38;;;;;;;14.40;3.50;;;21.90;50.50;;;;;;5109596;28;20056;-69
2022/01/29 11:35:21;;;;;;;11.85;3.30;;;21.90;50.50;;;;;;5106049;28;20044;-70
2022/01/29 11:37:57;;;;;;;12.00;3.10;;;21.90;50.80;;;;;;5109395;28;20475;-70
2022/01/29 11:40:36;;;;;;;20.85;3.85;;;21.90;51.10;;;;;;5134213;27;20044;-69
2022/01/29 11:43:14;;;;;;;15.85;2.95;;;21.90;51.80;;;;;;5096951;28;20048;-67
2022/01/29 11:45:58;;;;;;;15.47;3.50;;;21.90;52.30;;;;;;5092603;28;20091;-67
2022/01/29 11:48:24;;;;;;;22.40;3.47;;;21.80;52.30;;;;;;5089154;28;20333;-69
2022/01/29 11:50:50;;;;;;;18.13;3.65;;;21.90;52.70;;;;;;5084719;28;20047;-68
2022/01/29 11:53:18;;;;;;;21.80;3.78;;;21.90;52.90;;;;;;5092035;28;20114;-71
2022/01/29 11:55:47;;;;;;;20.10;3.80;;;21.80;53.10;;;;;;5086594;28;20800;-68
2022/01/29 11:58:16;;;;;;;18.63;4.10;;;21.90;53.20;;;;;;5074688;28;20084;-68
2022/01/29 12:00:48;;;;;;;25.58;4.18;;;21.80;53.20;;;;;;5103408;27;20047;-68
2022/01/29 12:03:32;;;;;;;15.05;3.38;;;21.80;53.30;;;;;;5078213;28;20044;-67
2022/01/29 12:09:05;;;;;;;16.83;3.17;;;21.80;53.60;;;;;;5078831;28;20113;-69
2022/01/29 12:11:32;;;;;;;15.20;3.55;;;21.80;53.70;;;;;;5077371;28;20051;-69
2022/01/29 12:14:13;;;;;;;9.73;3.17;;;21.80;53.50;;;;;;5075611;28;20422;-71
2022/01/29 12:16:59;;;;;;;13.90;2.88;;;21.80;53.60;;;;;;5079636;28;20028;-69
2022/01/29 12:19:45;;;;;;;15.32;3.33;;;21.80;53.50;;;;;;5079032;28;20036;-71
2022/01/29 12:22:23;;;;;;;12.68;2.78;;;21.80;53.50;;;;;;5078189;28;20086;-68
2022/01/29 12:24:49;;;;;;;9.25;3.20;;;21.80;53.50;;;;;;5077459;28;20105;-69
2022/01/29 12:27:15;;;;;;;19.75;3.03;;;21.80;53.40;;;;;;5075674;28;20112;-69
2022/01/29 12:29:41;;;;;;;18.60;3.33;;;21.80;53.30;;;;;;5076350;28;20645;-67
2022/01/29 12:32:09;;;;;;;16.15;3.13;;;21.80;53.20;;;;;;5073346;28;20048;-67
2022/01/29 12:34:34;;;;;;;14.00;3.10;;;21.80;53.20;;;;;;5072097;28;20064;-69
2022/01/29 12:37:18;;;;;;;12.27;2.85;;;21.80;53.10;;;;;;5077740;28;20044;-67
2022/01/29 12:39:46;;;;;;;12.43;2.72;;;21.80;53.00;;;;;;5107205;27;20056;-68
2022/01/29 12:44:40;;;;;;;14.80;3.28;;;21.80;52.90;;;;;;5075735;28;20120;-68
2022/01/29 12:47:06;;;;;;;11.55;2.97;;;21.80;52.80;;;;;;5075151;28;21505;-70
2022/01/29 12:49:44;;;;;;;13.95;3.33;;;21.80;52.80;;;;;;5072996;28;20503;-69
2022/01/29 12:52:15;;;;;;;11.50;3.10;;;21.80;52.70;;;;;;5073770;28;20040;-68
2022/01/29 12:54:54;;;;;;;8.88;2.50;;;21.80;52.70;;;;;;5074333;28;20443;-73
2022/01/29 12:57:21;;;;;;;11.82;2.85;;;21.80;54.00;;;;;;5104719;27;20168;-69
2022/01/29 12:59:46;;;;;;;8.35;2.42;;;21.80;52.80;;;;;;5078268;28;20048;-72
2022/01/29 13:02:12;;;;;;;10.68;2.40;;;21.80;52.60;;;;;;5076705;28;20028;-69
2022/01/29 13:04:39;;;;;;;7.85;2.40;;;21.80;52.40;;;;;;5069736;28;20128;-70
2022/01/29 13:07:07;;;;;;;15.18;2.85;;;21.80;52.30;;;;;;5083272;28;20043;-67
2022/01/29 13:09:35;;;;;;;12.05;3.05;;;21.80;52.30;;;;;;5074684;28;20061;-70
2022/01/29 13:12:03;;;;;;;;;;;21.80;52.30;;;;;;5077113;28;20078;-68